Terminal Aerodrome Forecast
Issued by NWS

Home | Current Version | Previous Version | Text Only | Print | Product List | Glossary On
Versions: 1 2 3 4 5 6 7 8 9 10 11 12 13 14 15 16 17 18 19
000
FTUS45 KPSR 011731
TAFIWA
TAF
KIWA 011731Z 0118/0218 13009KT P6SM SCT080 BKN100
     FM012200 25007KT P6SM SCT080
     FM020000 30008KT P6SM FEW100
     FM020500 12005KT P6SM FEW100
     FM021600 12009KT P6SM SKC=

USA.gov is the U.S. government's official web portal to all federal, state and local government web resources and services.